createdAt,value
2023-05-03T00:02:10.988Z,59.32
2023-05-03T00:04:38.692Z,59.23
2023-05-03T00:07:05.603Z,59.32
2023-05-03T00:09:35.599Z,59.58
2023-05-03T00:12:02.955Z,59.42
2023-05-03T00:14:30.389Z,59.80
2023-05-03T00:16:58.101Z,60.65
2023-05-03T00:19:31.740Z,60.52
2023-05-03T00:21:59.742Z,59.95
2023-05-03T00:24:27.591Z,60.21
2023-05-03T00:26:54.697Z,59.64
2023-05-03T00:29:23.054Z,60.11
2023-05-03T00:31:50.169Z,60.45
2023-05-03T00:34:17.209Z,60.05
2023-05-03T00:36:44.181Z,60.15
2023-05-03T00:39:11.647Z,60.35
2023-05-03T00:41:39.834Z,60.84
2023-05-03T00:44:06.982Z,60.97
2023-05-03T00:46:35.306Z,61.21
2023-05-03T00:49:02.514Z,61.43
2023-05-03T00:51:29.527Z,61.03
2023-05-03T00:53:56.979Z,60.88
2023-05-03T00:56:24.209Z,61.09
2023-05-03T00:58:54.747Z,61.43
2023-05-03T01:01:22.265Z,60.79
2023-05-03T01:03:50.706Z,61.18
2023-05-03T01:06:17.827Z,61.16
2023-05-03T01:08:55.631Z,61.41
2023-05-03T01:11:48.315Z,61.72
2023-05-03T01:14:28.882Z,62.08
2023-05-03T01:17:06.190Z,63.16
2023-05-03T01:19:44.429Z,62.16
2023-05-03T01:22:12.206Z,62.04
2023-05-03T01:24:42.573Z,61.98
2023-05-03T01:27:09.594Z,62.57
2023-05-03T01:29:36.540Z,62.22
2023-05-03T01:32:09.353Z,62.45
2023-05-03T01:34:49.248Z,62.85
2023-05-03T01:37:17.521Z,62.79
2023-05-03T01:40:01.734Z,63.22
2023-05-03T01:42:30.826Z,63.05
2023-05-03T01:44:58.935Z,63.23
2023-05-03T01:47:27.963Z,62.96
2023-05-03T01:49:54.888Z,62.66
2023-05-03T01:52:21.905Z,62.96
2023-05-03T01:54:48.843Z,63.33
2023-05-03T01:57:15.987Z,62.87
2023-05-03T01:59:42.926Z,63.05
2023-05-03T02:02:09.913Z,62.21
2023-05-03T02:04:36.963Z,62.58
2023-05-03T02:07:04.048Z,62.60
2023-05-03T02:09:31.000Z,62.03
2023-05-03T02:11:57.903Z,62.33
2023-05-03T02:14:24.967Z,62.28
2023-05-03T02:16:52.092Z,62.35
2023-05-03T02:19:19.230Z,63.08
2023-05-03T02:21:46.124Z,61.89
2023-05-03T02:24:13.486Z,62.59
2023-05-03T02:26:40.830Z,62.53
2023-05-03T02:29:10.097Z,62.77
2023-05-03T02:31:37.234Z,62.90
2023-05-03T02:34:05.161Z,63.01
2023-05-03T02:36:32.263Z,63.55
2023-05-03T02:39:01.452Z,63.00
2023-05-03T02:41:28.851Z,63.39
2023-05-03T02:43:56.558Z,63.04
2023-05-03T02:46:26.530Z,63.01
2023-05-03T02:48:53.866Z,63.31
2023-05-03T02:51:21.103Z,63.51
2023-05-03T02:53:48.309Z,62.96
2023-05-03T02:56:15.247Z,62.81
2023-05-03T02:58:42.252Z,62.94
2023-05-03T03:01:10.963Z,62.54
2023-05-03T03:03:38.098Z,62.07
2023-05-03T03:06:05.476Z,62.32
2023-05-03T03:08:36.534Z,61.71
2023-05-03T03:11:05.636Z,61.53
2023-05-03T03:13:33.505Z,61.60
2023-05-03T03:16:02.053Z,61.52
2023-05-03T03:18:29.345Z,61.32
2023-05-03T03:20:56.260Z,61.89
2023-05-03T03:23:23.419Z,61.24
2023-05-03T03:25:51.253Z,61.43
2023-05-03T03:28:19.171Z,61.52
2023-05-03T03:30:46.981Z,61.14
2023-05-03T03:33:24.438Z,61.18
2023-05-03T03:35:54.572Z,61.35
2023-05-03T03:38:25.966Z,61.05
2023-05-03T03:40:59.125Z,61.82
2023-05-03T03:43:26.484Z,61.69
2023-05-03T03:45:54.228Z,61.31
2023-05-03T03:48:23.472Z,61.29
2023-05-03T03:50:51.252Z,61.42
2023-05-03T03:53:20.882Z,61.95
2023-05-03T03:55:48.516Z,61.67
2023-05-03T03:58:17.555Z,61.32
2023-05-03T04:00:45.418Z,61.60
2023-05-03T04:03:17.015Z,61.57
2023-05-03T04:05:44.010Z,61.11
2023-05-03T04:08:11.033Z,61.49
2023-05-03T04:10:39.801Z,61.65
2023-05-03T04:13:07.153Z,61.30
2023-05-03T04:15:34.596Z,61.46
2023-05-03T04:18:03.843Z,60.96
2023-05-03T04:20:31.894Z,61.14
2023-05-03T04:23:01.460Z,60.82
2023-05-03T04:25:33.424Z,60.91
2023-05-03T04:28:06.979Z,61.31
2023-05-03T04:30:36.269Z,61.06
2023-05-03T04:33:04.353Z,61.12
2023-05-03T04:35:34.303Z,60.94
2023-05-03T04:38:06.095Z,60.68
2023-05-03T04:40:34.388Z,61.00
2023-05-03T04:43:06.335Z,61.53
2023-05-03T04:45:38.100Z,61.23
2023-05-03T04:48:07.139Z,61.21
2023-05-03T04:50:34.422Z,61.54
2023-05-03T04:53:02.225Z,61.38
2023-05-03T04:55:31.012Z,61.58
2023-05-03T04:57:59.363Z,61.98
2023-05-03T05:00:26.356Z,61.47
2023-05-03T05:02:59.378Z,61.57
2023-05-03T05:05:29.304Z,61.62
2023-05-03T05:07:58.443Z,61.61
2023-05-03T05:10:28.627Z,61.50
2023-05-03T05:12:56.753Z,61.19
2023-05-03T05:15:24.147Z,61.23
2023-05-03T05:17:51.683Z,61.31
2023-05-03T05:20:20.345Z,61.23
2023-05-03T05:22:49.887Z,60.82
2023-05-03T05:25:16.989Z,60.90
2023-05-03T05:27:44.266Z,60.65
2023-05-03T05:30:11.468Z,60.47
2023-05-03T05:32:41.024Z,60.62
2023-05-03T05:35:11.119Z,61.05
2023-05-03T05:37:38.643Z,60.62
2023-05-03T05:40:07.945Z,60.44
2023-05-03T05:42:42.785Z,60.37
2023-05-03T05:45:10.523Z,60.28
2023-05-03T05:47:38.787Z,60.27
2023-05-03T05:50:15.281Z,60.29
2023-05-03T05:52:46.923Z,60.69
2023-05-03T05:55:16.031Z,60.20
2023-05-03T05:57:44.950Z,60.26
2023-05-03T06:00:17.559Z,59.83
2023-05-03T06:02:45.850Z,59.08
2023-05-03T06:05:16.968Z,57.31
2023-05-03T06:07:44.206Z,54.01
2023-05-03T06:10:11.536Z,52.30
2023-05-03T06:12:41.032Z,49.55
2023-05-03T06:15:14.107Z,48.16
2023-05-03T06:17:41.461Z,45.89
2023-05-03T06:20:14.571Z,44.58
2023-05-03T06:22:42.522Z,42.81
2023-05-03T06:25:14.086Z,41.65
2023-05-03T06:27:44.132Z,39.51
2023-05-03T06:30:12.410Z,38.32
2023-05-03T06:32:42.335Z,37.03
2023-05-03T06:35:10.266Z,37.11
2023-05-03T06:37:39.182Z,35.51
2023-05-03T06:40:07.968Z,33.78
2023-05-03T06:42:36.991Z,33.64
2023-05-03T06:45:14.059Z,33.37
2023-05-03T06:47:42.913Z,32.33
2023-05-03T06:50:14.050Z,30.75
2023-05-03T06:52:41.432Z,31.05
2023-05-03T06:55:09.531Z,29.57
2023-05-03T06:57:36.500Z,29.85
2023-05-03T07:00:07.491Z,29.43
2023-05-03T07:02:34.955Z,28.58
2023-05-03T07:05:02.141Z,27.70
2023-05-03T07:07:29.160Z,27.20
2023-05-03T07:09:56.120Z,27.56
2023-05-03T07:12:27.756Z,27.00
2023-05-03T07:14:55.719Z,25.82
2023-05-03T07:17:23.330Z,25.15
2023-05-03T07:19:51.599Z,24.94
2023-05-03T07:22:21.382Z,24.51
2023-05-03T07:24:48.449Z,23.82
2023-05-03T07:27:15.686Z,24.15
2023-05-03T07:29:42.635Z,24.28
2023-05-03T07:32:09.574Z,23.01
2023-05-03T07:34:36.558Z,22.96
2023-05-03T07:37:04.184Z,22.06
2023-05-03T07:39:31.250Z,21.79
2023-05-03T07:41:58.214Z,21.84
2023-05-03T07:44:25.324Z,21.13
2023-05-03T07:46:52.420Z,21.67
2023-05-03T07:49:19.382Z,21.04
2023-05-03T07:51:46.350Z,20.19
2023-05-03T07:54:13.372Z,19.85
2023-05-03T07:56:40.346Z,19.49
2023-05-03T07:59:10.308Z,20.29
2023-05-03T08:01:38.133Z,19.55
2023-05-03T08:04:05.729Z,19.42
2023-05-03T08:06:33.552Z,17.46
2023-05-03T08:09:00.953Z,18.61
2023-05-03T08:11:29.345Z,17.67
2023-05-03T08:13:56.891Z,17.58
2023-05-03T08:16:23.986Z,18.50
2023-05-03T08:18:51.774Z,18.00
2023-05-03T08:21:19.259Z,18.65
2023-05-03T08:23:46.523Z,17.13
2023-05-03T08:26:14.777Z,17.23
2023-05-03T08:28:42.245Z,16.61
2023-05-03T08:31:09.775Z,19.06
2023-05-03T08:33:37.178Z,20.56
2023-05-03T08:36:04.488Z,21.25
2023-05-03T08:38:31.600Z,21.52
2023-05-03T08:40:59.839Z,22.29
2023-05-03T08:43:28.827Z,23.17
2023-05-03T08:45:56.275Z,23.43
2023-05-03T08:48:23.828Z,25.37
2023-05-03T08:50:52.237Z,26.21
2023-05-03T08:53:19.470Z,27.62
2023-05-03T08:55:46.413Z,27.00
2023-05-03T08:58:13.751Z,27.17
2023-05-03T09:00:45.495Z,27.47
2023-05-03T09:03:13.277Z,26.11
2023-05-03T09:05:44.335Z,26.03
2023-05-03T09:08:17.266Z,26.43
2023-05-03T09:10:44.545Z,26.42
2023-05-03T09:13:12.222Z,26.80
2023-05-03T09:15:39.301Z,27.24
2023-05-03T09:18:16.207Z,26.85
2023-05-03T09:20:51.805Z,28.37
2023-05-03T09:23:28.816Z,29.09
2023-05-03T09:25:56.154Z,29.60
2023-05-03T09:28:23.802Z,29.67
2023-05-03T09:31:03.988Z,30.49
2023-05-03T09:33:30.948Z,29.50
2023-05-03T09:36:03.490Z,30.28
2023-05-03T09:38:36.946Z,31.48
2023-05-03T09:41:06.881Z,33.29
2023-05-03T09:43:36.017Z,35.13
2023-05-03T09:46:10.845Z,36.48
2023-05-03T09:48:39.451Z,37.38
2023-05-03T09:51:07.235Z,38.23
2023-05-03T09:53:37.924Z,39.82
2023-05-03T09:56:09.076Z,40.73
2023-05-03T09:58:36.540Z,40.96
2023-05-03T10:01:03.591Z,42.60
2023-05-03T10:03:41.545Z,43.91
2023-05-03T10:06:23.288Z,44.17
2023-05-03T10:08:55.035Z,44.89
2023-05-03T10:11:26.907Z,44.86
2023-05-03T10:13:55.924Z,44.67
2023-05-03T10:16:50.758Z,44.42
2023-05-03T10:19:28.075Z,44.63
2023-05-03T10:22:07.940Z,46.52
2023-05-03T10:25:03.410Z,48.61
2023-05-03T10:27:51.951Z,47.47
2023-05-03T10:30:32.727Z,47.19
2023-05-03T10:33:00.679Z,46.63
2023-05-03T10:35:29.728Z,46.71
2023-05-03T10:37:57.222Z,48.95
2023-05-03T10:40:24.736Z,49.48
2023-05-03T10:42:56.535Z,50.33
2023-05-03T10:45:28.834Z,50.46
2023-05-03T10:48:25.824Z,49.16
2023-05-03T10:50:53.133Z,49.53
2023-05-03T10:53:41.328Z,48.22
2023-05-03T10:56:13.742Z,47.40
2023-05-03T10:58:45.497Z,47.52
2023-05-03T11:01:20.258Z,46.15
2023-05-03T11:04:08.509Z,46.19
2023-05-03T11:06:46.134Z,45.71
2023-05-03T11:09:15.055Z,45.80
2023-05-03T11:11:42.621Z,44.08
2023-05-03T11:14:10.434Z,43.93
2023-05-03T11:16:40.771Z,43.86
2023-05-03T11:19:08.123Z,42.35
2023-05-03T11:21:35.170Z,41.78
2023-05-03T11:24:02.555Z,41.35
2023-05-03T11:26:35.208Z,41.63
2023-05-03T11:29:02.168Z,40.80
2023-05-03T11:31:29.258Z,39.03
2023-05-03T11:33:56.696Z,37.16
2023-05-03T11:36:23.595Z,35.50
2023-05-03T11:38:50.588Z,35.02
2023-05-03T11:41:18.247Z,35.83
2023-05-03T11:43:47.641Z,36.46
2023-05-03T11:46:22.204Z,36.19
2023-05-03T11:48:49.352Z,37.04
2023-05-03T11:51:22.507Z,35.89
2023-05-03T11:53:49.967Z,35.38
2023-05-03T11:56:20.417Z,36.75
2023-05-03T11:58:58.808Z,36.70
2023-05-03T12:01:28.426Z,37.82
2023-05-03T12:04:02.654Z,39.06
2023-05-03T12:06:34.207Z,38.74
2023-05-03T12:09:04.380Z,39.13
2023-05-03T12:11:44.809Z,39.14
2023-05-03T12:14:12.768Z,38.81
2023-05-03T12:16:50.835Z,37.78
2023-05-03T12:19:33.459Z,36.08
2023-05-03T12:22:18.079Z,39.64
2023-05-03T12:24:49.788Z,37.73
2023-05-03T12:27:19.272Z,40.50
2023-05-03T12:29:47.634Z,41.66
2023-05-03T12:32:15.214Z,41.10
2023-05-03T12:34:42.997Z,39.41
2023-05-03T12:37:16.763Z,40.76
2023-05-03T12:39:46.402Z,41.85
2023-05-03T12:42:20.648Z,41.68
2023-05-03T12:44:50.594Z,41.48
2023-05-03T12:47:28.039Z,43.06
2023-05-03T12:49:59.691Z,42.31
2023-05-03T12:54:56.927Z,42.83
2023-05-03T12:57:24.626Z,42.31
2023-05-03T13:00:02.181Z,42.58
2023-05-03T13:05:01.161Z,45.67
2023-05-03T13:07:31.150Z,47.15
2023-05-03T13:12:33.551Z,47.90
2023-05-03T13:15:02.900Z,48.36
2023-05-03T13:17:31.711Z,49.43
2023-05-03T13:19:58.609Z,48.26
2023-05-03T13:22:25.695Z,48.67
2023-05-03T13:24:52.544Z,49.08
2023-05-03T13:27:19.517Z,48.78
2023-05-03T13:29:49.172Z,48.58
2023-05-03T13:32:17.055Z,47.76
2023-05-03T13:34:44.667Z,48.83
2023-05-03T13:37:12.165Z,49.18
2023-05-03T13:39:39.093Z,49.90
2023-05-03T13:42:06.281Z,48.87
2023-05-03T13:44:33.339Z,49.06
2023-05-03T13:47:00.295Z,48.59
2023-05-03T13:49:27.289Z,49.78
2023-05-03T13:51:54.645Z,49.64
2023-05-03T13:54:21.583Z,49.68
2023-05-03T13:56:48.628Z,50.70
2023-05-03T13:59:16.556Z,51.61
2023-05-03T14:01:43.825Z,51.95
2023-05-03T14:04:11.042Z,52.37
2023-05-03T14:06:40.798Z,51.98
2023-05-03T14:09:08.979Z,51.14
2023-05-03T14:11:36.224Z,50.53
2023-05-03T14:14:03.776Z,50.77
2023-05-03T14:16:41.057Z,50.71
2023-05-03T14:19:12.596Z,51.14
2023-05-03T14:21:43.235Z,52.09
2023-05-03T14:24:10.615Z,51.96
2023-05-03T14:26:38.034Z,52.23
2023-05-03T14:29:06.025Z,53.54
2023-05-03T14:31:34.390Z,53.63
2023-05-03T14:34:01.500Z,54.18
2023-05-03T14:36:36.506Z,54.29
2023-05-03T14:39:04.368Z,54.12
2023-05-03T14:41:33.548Z,54.82
2023-05-03T14:44:01.129Z,54.87
2023-05-03T14:46:28.305Z,54.35
2023-05-03T14:48:55.763Z,55.10
2023-05-03T14:51:22.813Z,53.53
2023-05-03T14:53:49.776Z,54.26
2023-05-03T14:56:16.742Z,53.30
2023-05-03T14:58:43.768Z,54.43
2023-05-03T15:01:18.414Z,54.53
2023-05-03T15:03:45.753Z,54.48
2023-05-03T15:06:12.710Z,55.45
2023-05-03T15:08:39.941Z,53.03
2023-05-03T15:11:08.004Z,54.21
2023-05-03T15:13:35.372Z,53.22
2023-05-03T15:16:02.417Z,54.05
2023-05-03T15:18:29.538Z,54.30
2023-05-03T15:20:56.837Z,54.79
2023-05-03T15:23:23.857Z,55.35
2023-05-03T15:25:51.269Z,54.47
2023-05-03T15:28:18.180Z,54.97
2023-05-03T15:30:45.064Z,56.03
2023-05-03T15:33:12.374Z,55.93
2023-05-03T15:35:40.833Z,56.71
2023-05-03T15:38:08.636Z,57.22
2023-05-03T15:40:36.044Z,57.21
2023-05-03T15:43:03.074Z,56.30
2023-05-03T15:45:30.117Z,56.47
2023-05-03T15:47:57.175Z,55.83
2023-05-03T15:50:24.230Z,53.73
2023-05-03T15:52:51.217Z,52.38
2023-05-03T15:55:19.324Z,51.97
2023-05-03T15:57:46.648Z,53.20
2023-05-03T16:00:18.058Z,49.95
2023-05-03T16:02:45.016Z,49.27
2023-05-03T16:05:12.040Z,49.10
2023-05-03T16:07:39.139Z,48.73
2023-05-03T16:10:07.881Z,49.73
2023-05-03T16:12:35.561Z,48.38
2023-05-03T16:15:02.999Z,50.07
2023-05-03T16:17:29.981Z,51.83
2023-05-03T16:19:57.219Z,53.95
2023-05-03T16:22:24.131Z,50.63
2023-05-03T16:24:51.372Z,49.49
2023-05-03T16:27:18.395Z,49.29
2023-05-03T16:29:45.308Z,49.23
2023-05-03T16:32:12.447Z,48.93
2023-05-03T16:34:39.502Z,48.85
2023-05-03T16:37:06.498Z,49.30
2023-05-03T16:39:33.397Z,49.30
2023-05-03T16:42:01.184Z,48.99
2023-05-03T16:44:28.291Z,48.46
2023-05-03T16:46:55.289Z,49.00
2023-05-03T16:49:22.432Z,48.55
2023-05-03T16:51:49.454Z,48.67
2023-05-03T16:54:17.095Z,47.92
2023-05-03T16:56:44.572Z,48.18
2023-05-03T16:59:12.036Z,46.21
2023-05-03T17:01:39.074Z,46.56
2023-05-03T17:04:06.740Z,47.50
2023-05-03T17:06:33.765Z,47.10
2023-05-03T17:09:01.033Z,47.59
2023-05-03T17:11:28.233Z,46.63
2023-05-03T17:13:55.198Z,47.59
2023-05-03T17:16:22.921Z,47.06
2023-05-03T17:18:50.824Z,45.37
2023-05-03T17:21:19.242Z,45.05
2023-05-03T17:23:47.118Z,42.21
2023-05-03T17:26:14.580Z,41.97
2023-05-03T17:28:41.790Z,42.89
2023-05-03T17:31:08.853Z,44.29
2023-05-03T17:33:36.351Z,43.40
2023-05-03T17:36:07.121Z,43.85
2023-05-03T17:38:34.892Z,44.58
2023-05-03T17:41:09.224Z,44.63
2023-05-03T17:43:37.329Z,45.15
2023-05-03T17:46:12.152Z,44.18
2023-05-03T17:48:43.498Z,44.02
2023-05-03T17:51:12.711Z,45.04
2023-05-03T17:53:40.982Z,45.55
2023-05-03T17:56:18.965Z,45.90
2023-05-03T17:58:47.346Z,46.04
2023-05-03T18:01:16.131Z,45.42
2023-05-03T18:03:43.383Z,45.60
2023-05-03T18:06:12.382Z,45.81
2023-05-03T18:08:39.525Z,46.45
2023-05-03T18:11:06.480Z,46.49
2023-05-03T18:13:33.534Z,47.09
2023-05-03T18:16:01.076Z,47.76
2023-05-03T18:18:28.127Z,48.06
2023-05-03T18:21:03.819Z,48.58
2023-05-03T18:23:32.075Z,48.61
2023-05-03T18:26:00.011Z,48.94
2023-05-03T18:28:27.695Z,49.31
2023-05-03T18:30:57.776Z,49.95
2023-05-03T18:33:24.779Z,49.56
2023-05-03T18:35:52.998Z,50.36
2023-05-03T18:38:21.748Z,50.44
2023-05-03T18:40:49.685Z,50.41
2023-05-03T18:43:17.101Z,50.39
2023-05-03T18:45:44.598Z,50.63
2023-05-03T18:48:12.090Z,50.37
2023-05-03T18:50:39.584Z,50.49
2023-05-03T18:53:07.014Z,50.56
2023-05-03T18:55:33.936Z,50.63
2023-05-03T18:58:01.550Z,50.77
2023-05-03T19:00:28.623Z,50.36
2023-05-03T19:02:55.649Z,50.70
2023-05-03T19:05:22.957Z,50.74
2023-05-03T19:07:50.118Z,50.85
2023-05-03T19:10:18.254Z,49.96
2023-05-03T19:12:45.417Z,50.22
2023-05-03T19:15:12.529Z,49.78
2023-05-03T19:17:42.458Z,49.66
2023-05-03T19:20:12.827Z,49.16
2023-05-03T19:22:39.855Z,48.35
2023-05-03T19:25:07.358Z,48.99
2023-05-03T19:27:34.425Z,49.02
2023-05-03T19:30:01.742Z,49.56
2023-05-03T19:32:29.493Z,49.17
2023-05-03T19:34:56.643Z,49.45
2023-05-03T19:37:23.712Z,50.25
2023-05-03T19:39:50.842Z,50.04
2023-05-03T19:42:17.907Z,50.48
2023-05-03T19:44:44.976Z,50.63
2023-05-03T19:47:11.884Z,51.49
2023-05-03T19:49:39.350Z,51.33
2023-05-03T19:52:06.324Z,51.80
2023-05-03T19:54:33.494Z,51.51
2023-05-03T19:57:07.669Z,51.74
2023-05-03T19:59:35.024Z,51.35
2023-05-03T20:02:02.154Z,51.84
2023-05-03T20:04:29.197Z,51.99
2023-05-03T20:06:57.378Z,52.12
2023-05-03T20:09:24.657Z,53.06
2023-05-03T20:11:56.713Z,53.32
2023-05-03T20:14:23.759Z,52.71
2023-05-03T20:16:50.786Z,53.22
2023-05-03T20:19:17.825Z,52.92
2023-05-03T20:21:44.877Z,52.85
2023-05-03T20:24:11.812Z,53.22
2023-05-03T20:26:38.915Z,53.67
2023-05-03T20:29:06.133Z,54.22
2023-05-03T20:31:34.092Z,54.28
2023-05-03T20:34:01.504Z,54.58
2023-05-03T20:36:28.518Z,54.27
2023-05-03T20:38:56.600Z,54.32
2023-05-03T20:41:24.149Z,54.56
2023-05-03T20:43:55.142Z,54.10
2023-05-03T20:46:22.163Z,54.09
2023-05-03T20:48:50.067Z,54.62
2023-05-03T20:51:17.426Z,55.05
2023-05-03T20:53:44.733Z,54.83
2023-05-03T20:56:12.628Z,55.35
2023-05-03T20:58:39.602Z,55.54
2023-05-03T21:01:08.124Z,57.05
2023-05-03T21:03:35.686Z,56.02
2023-05-03T21:06:02.948Z,56.78
2023-05-03T21:08:29.996Z,56.92
2023-05-03T21:10:57.096Z,57.47
2023-05-03T21:13:48.523Z,57.47
2023-05-03T21:16:18.022Z,58.26
2023-05-03T21:18:45.077Z,57.90
2023-05-03T21:21:12.253Z,57.98
2023-05-03T21:23:39.508Z,58.19
2023-05-03T21:26:06.547Z,58.44
2023-05-03T21:28:33.792Z,58.64
2023-05-03T21:31:00.938Z,59.25
2023-05-03T21:33:28.030Z,59.06
2023-05-03T21:35:58.738Z,59.35
2023-05-03T21:38:25.878Z,60.27
2023-05-03T21:40:53.969Z,60.65
2023-05-03T21:43:21.473Z,60.13
2023-05-03T21:45:49.036Z,60.85
2023-05-03T21:48:16.140Z,61.30
2023-05-03T21:50:43.712Z,62.05
2023-05-03T21:53:10.602Z,61.69
2023-05-03T21:55:38.614Z,60.88
2023-05-03T21:58:05.601Z,61.41
2023-05-03T22:00:33.019Z,60.69
2023-05-03T22:03:00.296Z,60.93
2023-05-03T22:05:27.693Z,59.89
2023-05-03T22:07:54.807Z,59.72
2023-05-03T22:10:21.858Z,59.82
2023-05-03T22:12:49.047Z,60.65
2023-05-03T22:15:18.673Z,60.67
2023-05-03T22:17:46.102Z,61.48
2023-05-03T22:20:13.237Z,60.12
2023-05-03T22:22:40.171Z,59.79
2023-05-03T22:25:07.507Z,60.49
2023-05-03T22:27:34.428Z,60.37
2023-05-03T22:30:01.584Z,60.46
2023-05-03T22:32:28.890Z,59.92
2023-05-03T22:34:58.669Z,60.28
2023-05-03T22:37:25.625Z,60.62
2023-05-03T22:39:52.684Z,59.77
2023-05-03T22:42:21.544Z,60.32
2023-05-03T22:44:48.528Z,60.28
2023-05-03T22:47:15.842Z,60.41
2023-05-03T22:49:43.732Z,60.44
2023-05-03T22:52:10.832Z,60.73
2023-05-03T22:54:37.917Z,60.26
2023-05-03T22:57:04.972Z,59.88
2023-05-03T22:59:32.075Z,60.16
2023-05-03T23:01:59.209Z,59.92
2023-05-03T23:04:26.317Z,60.20
2023-05-03T23:06:54.202Z,60.49
2023-05-03T23:09:21.561Z,60.06
2023-05-03T23:11:48.864Z,59.85
2023-05-03T23:14:16.170Z,59.69
2023-05-03T23:16:43.099Z,60.05
2023-05-03T23:19:10.839Z,60.12
2023-05-03T23:21:37.918Z,59.88
2023-05-03T23:24:05.339Z,59.82
2023-05-03T23:26:32.248Z,60.30
2023-05-03T23:28:59.849Z,61.18
2023-05-03T23:31:31.610Z,60.49
2023-05-03T23:34:00.272Z,60.35
2023-05-03T23:36:27.922Z,59.68
2023-05-03T23:38:54.852Z,59.96
2023-05-03T23:41:21.965Z,60.05
2023-05-03T23:43:48.965Z,60.05
2023-05-03T23:46:16.034Z,59.86
2023-05-03T23:48:43.224Z,59.66
2023-05-03T23:51:10.214Z,60.26
2023-05-03T23:53:37.838Z,59.67
2023-05-03T23:56:04.935Z,59.74
2023-05-03T23:58:31.989Z,59.62
